sensor_id;sensor_type;location;lat;lon;timestamp;pressure;altitude;pressure_sealevel;temperature;humidity
26083;BME280;13848;49.018;12.078;2022-08-19T00:01:56;96984.16;;;22.45;71.57
26083;BME280;13848;49.018;12.078;2022-08-19T00:04:26;96977.41;;;22.51;71.48
26083;BME280;13848;49.018;12.078;2022-08-19T00:06:54;96977.41;;;22.51;70.46
26083;BME280;13848;49.018;12.078;2022-08-19T00:09:22;96987.19;;;22.44;70.57
26083;BME280;13848;49.018;12.078;2022-08-19T00:11:48;96983.97;;;22.42;71.25
26083;BME280;13848;49.018;12.078;2022-08-19T00:14:16;96984.44;;;22.44;70.92
26083;BME280;13848;49.018;12.078;2022-08-19T00:16:44;96993.03;;;22.42;71.12
26083;BME280;13848;49.018;12.078;2022-08-19T00:19:10;96996.56;;;22.43;70.91
26083;BME280;13848;49.018;12.078;2022-08-19T00:21:36;97011.13;;;22.43;70.82
26083;BME280;13848;49.018;12.078;2022-08-19T00:24:04;97017.75;;;22.42;70.47
26083;BME280;13848;49.018;12.078;2022-08-19T00:26:30;97029.84;;;22.41;70.53
26083;BME280;13848;49.018;12.078;2022-08-19T00:28:56;97027.44;;;22.40;70.40
26083;BME280;13848;49.018;12.078;2022-08-19T00:31:22;97028.72;;;22.42;70.20
26083;BME280;13848;49.018;12.078;2022-08-19T00:33:48;97017.88;;;22.37;70.39
26083;BME280;13848;49.018;12.078;2022-08-19T00:36:14;97025.31;;;22.37;70.83
26083;BME280;13848;49.018;12.078;2022-08-19T00:38:40;97031.72;;;22.32;70.73
26083;BME280;13848;49.018;12.078;2022-08-19T00:41:07;97030.25;;;22.26;70.96
26083;BME280;13848;49.018;12.078;2022-08-19T00:43:33;97042.22;;;22.30;71.08
26083;BME280;13848;49.018;12.078;2022-08-19T00:45:59;97037.75;;;22.34;71.47
26083;BME280;13848;49.018;12.078;2022-08-19T00:48:25;97040.13;;;22.27;71.11
26083;BME280;13848;49.018;12.078;2022-08-19T00:50:52;97045.63;;;22.27;71.10
26083;BME280;13848;49.018;12.078;2022-08-19T00:53:23;97027.00;;;22.24;71.70
26083;BME280;13848;49.018;12.078;2022-08-19T00:55:51;97035.03;;;22.20;71.16
26083;BME280;13848;49.018;12.078;2022-08-19T00:58:21;97036.88;;;22.25;71.41
26083;BME280;13848;49.018;12.078;2022-08-19T01:00:47;97023.78;;;22.22;71.02
26083;BME280;13848;49.018;12.078;2022-08-19T01:03:19;97032.00;;;22.22;71.48
26083;BME280;13848;49.018;12.078;2022-08-19T01:05:47;97038.63;;;22.21;71.12
26083;BME280;13848;49.018;12.078;2022-08-19T01:08:16;97042.59;;;22.15;71.71
26083;BME280;13848;49.018;12.078;2022-08-19T01:10:44;97050.84;;;22.15;71.84
26083;BME280;13848;49.018;12.078;2022-08-19T01:13:13;97056.31;;;22.15;72.01
26083;BME280;13848;49.018;12.078;2022-08-19T01:15:43;97059.06;;;22.15;72.30
26083;BME280;13848;49.018;12.078;2022-08-19T01:18:13;97060.41;;;22.17;72.26
26083;BME280;13848;49.018;12.078;2022-08-19T01:20:41;97065.69;;;22.14;71.91
26083;BME280;13848;49.018;12.078;2022-08-19T01:23:08;97064.06;;;22.13;72.37
26083;BME280;13848;49.018;12.078;2022-08-19T01:25:39;97065.53;;;22.10;72.44
26083;BME280;13848;49.018;12.078;2022-08-19T01:28:07;97056.97;;;22.12;72.22
26083;BME280;13848;49.018;12.078;2022-08-19T01:30:34;97047.91;;;22.11;71.67
26083;BME280;13848;49.018;12.078;2022-08-19T01:33:01;97046.78;;;22.12;71.70
26083;BME280;13848;49.018;12.078;2022-08-19T01:35:29;97050.66;;;22.11;71.78
26083;BME280;13848;49.018;12.078;2022-08-19T01:37:57;97052.88;;;22.09;72.32
26083;BME280;13848;49.018;12.078;2022-08-19T01:40:27;97068.53;;;22.09;72.41
26083;BME280;13848;49.018;12.078;2022-08-19T01:42:53;97060.59;;;22.07;72.25
26083;BME280;13848;49.018;12.078;2022-08-19T01:45:22;97066.41;;;22.05;71.71
26083;BME280;13848;49.018;12.078;2022-08-19T01:47:48;97069.66;;;22.08;71.69
26083;BME280;13848;49.018;12.078;2022-08-19T01:50:15;97054.31;;;22.07;71.61
26083;BME280;13848;49.018;12.078;2022-08-19T01:52:42;97057.53;;;22.09;71.81
26083;BME280;13848;49.018;12.078;2022-08-19T01:55:11;97044.38;;;22.11;71.25
26083;BME280;13848;49.018;12.078;2022-08-19T01:57:41;97040.25;;;22.08;70.70
26083;BME280;13848;49.018;12.078;2022-08-19T02:00:11;97035.09;;;22.07;70.85
26083;BME280;13848;49.018;12.078;2022-08-19T02:02:37;97029.72;;;22.01;71.18
26083;BME280;13848;49.018;12.078;2022-08-19T02:05:04;97041.34;;;21.98;71.27
26083;BME280;13848;49.018;12.078;2022-08-19T02:07:30;97042.97;;;21.99;71.25
26083;BME280;13848;49.018;12.078;2022-08-19T02:09:56;97056.16;;;21.97;71.14
26083;BME280;13848;49.018;12.078;2022-08-19T02:12:22;97063.91;;;21.95;71.19
26083;BME280;13848;49.018;12.078;2022-08-19T02:14:49;97061.66;;;21.97;71.34
26083;BME280;13848;49.018;12.078;2022-08-19T02:17:15;97055.56;;;22.00;71.59
26083;BME280;13848;49.018;12.078;2022-08-19T02:19:41;97051.31;;;21.94;71.87
26083;BME280;13848;49.018;12.078;2022-08-19T02:22:07;97063.53;;;21.88;71.25
26083;BME280;13848;49.018;12.078;2022-08-19T02:24:32;97077.00;;;21.76;71.34
26083;BME280;13848;49.018;12.078;2022-08-19T02:26:58;97068.66;;;21.81;72.05
26083;BME280;13848;49.018;12.078;2022-08-19T02:29:24;97065.16;;;21.89;71.51
26083;BME280;13848;49.018;12.078;2022-08-19T02:31:51;97060.16;;;21.91;71.51
26083;BME280;13848;49.018;12.078;2022-08-19T02:34:17;97057.72;;;21.90;72.18
26083;BME280;13848;49.018;12.078;2022-08-19T02:36:43;97058.03;;;21.88;72.19
26083;BME280;13848;49.018;12.078;2022-08-19T02:39:09;97050.94;;;21.87;72.20
26083;BME280;13848;49.018;12.078;2022-08-19T02:41:35;97046.63;;;21.95;72.31
26083;BME280;13848;49.018;12.078;2022-08-19T02:44:02;97051.31;;;21.94;72.57
26083;BME280;13848;49.018;12.078;2022-08-19T02:46:31;97051.09;;;21.91;72.57
26083;BME280;13848;49.018;12.078;2022-08-19T02:49:00;97054.97;;;21.90;72.01
26083;BME280;13848;49.018;12.078;2022-08-19T02:51:28;97059.66;;;21.89;71.87
26083;BME280;13848;49.018;12.078;2022-08-19T02:53:55;97051.91;;;21.91;71.87
26083;BME280;13848;49.018;12.078;2022-08-19T02:56:21;97043.56;;;21.96;71.74
26083;BME280;13848;49.018;12.078;2022-08-19T02:58:48;97039.91;;;22.01;72.02
26083;BME280;13848;49.018;12.078;2022-08-19T03:01:20;97033.59;;;22.00;71.79
26083;BME280;13848;49.018;12.078;2022-08-19T03:03:46;97036.28;;;21.92;72.55
26083;BME280;13848;49.018;12.078;2022-08-19T03:06:15;97035.66;;;21.95;72.13
26083;BME280;13848;49.018;12.078;2022-08-19T03:08:43;97035.44;;;21.91;72.49
26083;BME280;13848;49.018;12.078;2022-08-19T03:11:13;97038.72;;;21.93;72.58
26083;BME280;13848;49.018;12.078;2022-08-19T03:13:39;97033.84;;;21.90;72.48
26083;BME280;13848;49.018;12.078;2022-08-19T03:16:05;97051.91;;;21.91;72.51
26083;BME280;13848;49.018;12.078;2022-08-19T03:18:31;97045.44;;;21.87;72.35
26083;BME280;13848;49.018;12.078;2022-08-19T03:20:57;97043.69;;;21.91;72.05
26083;BME280;13848;49.018;12.078;2022-08-19T03:23:24;97041.56;;;21.88;72.51
26083;BME280;13848;49.018;12.078;2022-08-19T03:25:52;97046.44;;;21.91;72.65
26083;BME280;13848;49.018;12.078;2022-08-19T03:28:19;97060.16;;;21.91;72.31
26083;BME280;13848;49.018;12.078;2022-08-19T03:30:56;97073.88;;;21.91;72.22
26083;BME280;13848;49.018;12.078;2022-08-19T03:33:23;97078.38;;;21.87;72.17
26083;BME280;13848;49.018;12.078;2022-08-19T03:36:00;97091.78;;;21.89;71.71
26083;BME280;13848;49.018;12.078;2022-08-19T03:38:27;97098.09;;;21.89;71.81
26083;BME280;13848;49.018;12.078;2022-08-19T03:40:53;97097.59;;;21.87;72.33
26083;BME280;13848;49.018;12.078;2022-08-19T03:43:19;97087.75;;;21.86;71.93
26083;BME280;13848;49.018;12.078;2022-08-19T03:45:45;97079.78;;;21.85;72.08
26083;BME280;13848;49.018;12.078;2022-08-19T03:48:11;97067.69;;;21.86;72.20
26083;BME280;13848;49.018;12.078;2022-08-19T03:50:38;97070.63;;;21.89;72.59
26083;BME280;13848;49.018;12.078;2022-08-19T03:53:04;97077.47;;;21.92;72.68
26083;BME280;13848;49.018;12.078;2022-08-19T03:55:31;97078.56;;;21.91;73.38
26083;BME280;13848;49.018;12.078;2022-08-19T03:57:57;97072.47;;;21.94;73.50
26083;BME280;13848;49.018;12.078;2022-08-19T04:00:23;97075.69;;;21.96;73.50
26083;BME280;13848;49.018;12.078;2022-08-19T04:02:49;97074.41;;;21.93;73.17
26083;BME280;13848;49.018;12.078;2022-08-19T04:05:15;97091.28;;;21.87;72.95
26083;BME280;13848;49.018;12.078;2022-08-19T04:07:41;97105.84;;;21.87;72.77
26083;BME280;13848;49.018;12.078;2022-08-19T04:10:07;97103.81;;;21.79;72.72
26083;BME280;13848;49.018;12.078;2022-08-19T04:12:35;97109.91;;;21.76;73.05
26083;BME280;13848;49.018;12.078;2022-08-19T04:15:01;97111.44;;;21.82;72.56
26083;BME280;13848;49.018;12.078;2022-08-19T04:17:27;97113.16;;;21.78;72.08
26083;BME280;13848;49.018;12.078;2022-08-19T04:19:52;97111.53;;;21.77;72.23
26083;BME280;13848;49.018;12.078;2022-08-19T04:22:18;97116.59;;;21.84;72.31
26083;BME280;13848;49.018;12.078;2022-08-19T04:24:44;97111.31;;;21.87;73.07
26083;BME280;13848;49.018;12.078;2022-08-19T04:27:10;97118.22;;;21.85;73.35
26083;BME280;13848;49.018;12.078;2022-08-19T04:29:37;97132.16;;;21.88;73.53
26083;BME280;13848;49.018;12.078;2022-08-19T04:32:03;97141.19;;;21.89;73.67
26083;BME280;13848;49.018;12.078;2022-08-19T04:34:29;97148.31;;;21.90;73.75
26083;BME280;13848;49.018;12.078;2022-08-19T04:36:57;97145.25;;;21.91;74.77
26083;BME280;13848;49.018;12.078;2022-08-19T04:39:25;97149.63;;;21.92;74.57
26083;BME280;13848;49.018;12.078;2022-08-19T04:41:51;97145.66;;;21.98;74.94
26083;BME280;13848;49.018;12.078;2022-08-19T04:44:18;97133.03;;;21.97;73.53
26083;BME280;13848;49.018;12.078;2022-08-19T04:46:45;97122.69;;;21.94;73.40
26083;BME280;13848;49.018;12.078;2022-08-19T04:49:11;97121.38;;;21.92;73.79
26083;BME280;13848;49.018;12.078;2022-08-19T04:51:40;97128.97;;;21.95;73.57
26083;BME280;13848;49.018;12.078;2022-08-19T04:54:06;97139.34;;;21.98;72.73
26083;BME280;13848;49.018;12.078;2022-08-19T04:56:32;97145.03;;;22.01;73.85
26083;BME280;13848;49.018;12.078;2022-08-19T04:58:59;97152.78;;;21.99;74.06
26083;BME280;13848;49.018;12.078;2022-08-19T05:01:26;97153.25;;;22.01;74.04
26083;BME280;13848;49.018;12.078;2022-08-19T05:03:54;97145.41;;;22.09;74.60
26083;BME280;13848;49.018;12.078;2022-08-19T05:06:21;97142.41;;;22.10;73.69
26083;BME280;13848;49.018;12.078;2022-08-19T05:08:48;97146.44;;;22.13;74.06
26083;BME280;13848;49.018;12.078;2022-08-19T05:11:16;97149.84;;;22.10;73.80
26083;BME280;13848;49.018;12.078;2022-08-19T05:13:43;97159.69;;;22.11;73.92
26083;BME280;13848;49.018;12.078;2022-08-19T05:16:11;97158.88;;;22.10;74.09
26083;BME280;13848;49.018;12.078;2022-08-19T05:18:37;97160.25;;;22.08;73.88
26083;BME280;13848;49.018;12.078;2022-08-19T05:21:07;97166.56;;;22.08;73.94
26083;BME280;13848;49.018;12.078;2022-08-19T05:23:33;97161.31;;;22.12;73.97
26083;BME280;13848;49.018;12.078;2022-08-19T05:25:58;97170.03;;;22.14;73.57
26083;BME280;13848;49.018;12.078;2022-08-19T05:28:25;97174.81;;;22.22;72.85
26083;BME280;13848;49.018;12.078;2022-08-19T05:30:51;97181.44;;;22.21;72.68
26083;BME280;13848;49.018;12.078;2022-08-19T05:33:18;97184.78;;;22.18;72.51
26083;BME280;13848;49.018;12.078;2022-08-19T05:35:44;97186.50;;;22.14;72.33
26083;BME280;13848;49.018;12.078;2022-08-19T05:38:11;97187.53;;;22.18;72.93
26083;BME280;13848;49.018;12.078;2022-08-19T05:40:38;97178.16;;;22.19;72.20
26083;BME280;13848;49.018;12.078;2022-08-19T05:43:04;97172.06;;;22.22;72.03
26083;BME280;13848;49.018;12.078;2022-08-19T05:45:31;97174.28;;;22.20;72.05
26083;BME280;13848;49.018;12.078;2022-08-19T05:47:57;97185.00;;;22.21;72.18
26083;BME280;13848;49.018;12.078;2022-08-19T05:50:23;97184.88;;;22.13;72.35
26083;BME280;13848;49.018;12.078;2022-08-19T05:52:49;97180.03;;;22.10;72.30
26083;BME280;13848;49.018;12.078;2022-08-19T05:55:16;97169.63;;;22.07;72.39
26083;BME280;13848;49.018;12.078;2022-08-19T05:57:42;97177.53;;;22.08;72.22
26083;BME280;13848;49.018;12.078;2022-08-19T06:00:09;97171.25;;;22.08;72.05
26083;BME280;13848;49.018;12.078;2022-08-19T06:02:35;97177.84;;;22.07;72.93
26083;BME280;13848;49.018;12.078;2022-08-19T06:05:03;97169.06;;;22.10;72.74
26083;BME280;13848;49.018;12.078;2022-08-19T06:07:29;97165.19;;;22.11;73.40
26083;BME280;13848;49.018;12.078;2022-08-19T06:09:55;97160.50;;;22.11;72.96
26083;BME280;13848;49.018;12.078;2022-08-19T06:12:22;97149.69;;;22.15;72.70
26083;BME280;13848;49.018;12.078;2022-08-19T06:14:48;97155.19;;;22.15;72.85
26083;BME280;13848;49.018;12.078;2022-08-19T06:17:14;97154.69;;;22.13;73.20
26083;BME280;13848;49.018;12.078;2022-08-19T06:19:40;97157.44;;;22.13;73.19
26083;BME280;13848;49.018;12.078;2022-08-19T06:22:06;97155.81;;;22.12;73.26
26083;BME280;13848;49.018;12.078;2022-08-19T06:24:32;97155.00;;;22.11;72.92
26083;BME280;13848;49.018;12.078;2022-08-19T06:26:59;97150.72;;;22.05;72.64
26083;BME280;13848;49.018;12.078;2022-08-19T06:29:27;97142.91;;;21.98;73.16
26083;BME280;13848;49.018;12.078;2022-08-19T06:31:56;97151.16;;;21.98;73.33
26083;BME280;13848;49.018;12.078;2022-08-19T06:34:23;97154.50;;;21.95;73.57
26083;BME280;13848;49.018;12.078;2022-08-19T06:36:51;97161.59;;;21.96;73.25
26083;BME280;13848;49.018;12.078;2022-08-19T06:39:18;97167.63;;;21.98;72.76
26083;BME280;13848;49.018;12.078;2022-08-19T06:41:47;97176.28;;;21.92;73.44
26083;BME280;13848;49.018;12.078;2022-08-19T06:44:14;97179.19;;;21.95;73.23
26083;BME280;13848;49.018;12.078;2022-08-19T06:46:42;97182.25;;;21.94;72.82
26083;BME280;13848;49.018;12.078;2022-08-19T06:49:08;97178.41;;;21.95;72.83
26083;BME280;13848;49.018;12.078;2022-08-19T06:51:34;97187.66;;;21.99;72.97
26083;BME280;13848;49.018;12.078;2022-08-19T06:54:00;97200.56;;;21.98;73.24
26083;BME280;13848;49.018;12.078;2022-08-19T06:56:28;97205.84;;;21.95;72.89
26083;BME280;13848;49.018;12.078;2022-08-19T06:58:55;97209.72;;;21.94;73.28
26083;BME280;13848;49.018;12.078;2022-08-19T07:01:21;97196.78;;;21.94;73.34
26083;BME280;13848;49.018;12.078;2022-08-19T07:03:48;97193.03;;;21.90;73.37
26083;BME280;13848;49.018;12.078;2022-08-19T07:06:16;97190.81;;;21.92;73.24
26083;BME280;13848;49.018;12.078;2022-08-19T07:08:43;97184.69;;;21.95;72.60
26083;BME280;13848;49.018;12.078;2022-08-19T07:11:11;97181.44;;;21.93;73.24
26083;BME280;13848;49.018;12.078;2022-08-19T07:13:37;97180.63;;;21.93;73.54
26083;BME280;13848;49.018;12.078;2022-08-19T07:16:04;97171.28;;;21.94;73.35
26083;BME280;13848;49.018;12.078;2022-08-19T07:18:31;97168.66;;;21.89;73.60
26083;BME280;13848;49.018;12.078;2022-08-19T07:21:04;97164.59;;;21.86;73.58
26083;BME280;13848;49.018;12.078;2022-08-19T07:23:30;97168.66;;;21.89;73.33
26083;BME280;13848;49.018;12.078;2022-08-19T07:25:56;97174.03;;;21.94;73.59
26083;BME280;13848;49.018;12.078;2022-08-19T07:28:22;97183.38;;;21.93;73.49
26083;BME280;13848;49.018;12.078;2022-08-19T07:30:48;97190.81;;;21.92;72.80
26083;BME280;13848;49.018;12.078;2022-08-19T07:33:14;97179.94;;;21.87;72.92
26083;BME280;13848;49.018;12.078;2022-08-19T07:35:39;97185.53;;;21.82;72.94
26083;BME280;13848;49.018;12.078;2022-08-19T07:38:07;97187.75;;;21.80;73.51
26083;BME280;13848;49.018;12.078;2022-08-19T07:40:33;97178.91;;;21.83;73.21
26083;BME280;13848;49.018;12.078;2022-08-19T07:42:59;97190.22;;;21.82;73.41
26083;BME280;13848;49.018;12.078;2022-08-19T07:45:24;97187.97;;;21.84;73.59
26083;BME280;13848;49.018;12.078;2022-08-19T07:47:50;97198.34;;;21.87;73.62
26083;BME280;13848;49.018;12.078;2022-08-19T07:50:17;97195.88;;;21.85;73.56
26083;BME280;13848;49.018;12.078;2022-08-19T07:52:44;97194.47;;;21.88;73.13
26083;BME280;13848;49.018;12.078;2022-08-19T07:55:11;97195.97;;;21.80;73.35
26083;BME280;13848;49.018;12.078;2022-08-19T07:57:37;97198.94;;;21.84;73.23
26083;BME280;13848;49.018;12.078;2022-08-19T08:00:04;97201.47;;;21.94;73.47
26083;BME280;13848;49.018;12.078;2022-08-19T08:02:31;97194.06;;;21.94;73.17
26083;BME280;13848;49.018;12.078;2022-08-19T08:04:57;97191.19;;;21.99;73.98
26083;BME280;13848;49.018;12.078;2022-08-19T08:07:23;97192.09;;;22.09;73.85
26083;BME280;13848;49.018;12.078;2022-08-19T08:09:49;97196.75;;;22.08;73.93
26083;BME280;13848;49.018;12.078;2022-08-19T08:12:18;97192.22;;;22.17;72.91
26083;BME280;13848;49.018;12.078;2022-08-19T08:14:46;97188.34;;;22.18;72.40
26083;BME280;13848;49.018;12.078;2022-08-19T08:17:14;97176.22;;;22.19;72.24
26083;BME280;13848;49.018;12.078;2022-08-19T08:19:41;97173.25;;;22.29;72.42
26083;BME280;13848;49.018;12.078;2022-08-19T08:22:08;97169.59;;;22.34;72.48
26083;BME280;13848;49.018;12.078;2022-08-19T08:24:34;97170.78;;;22.42;72.42
26083;BME280;13848;49.018;12.078;2022-08-19T08:27:00;97169.34;;;22.44;72.05
26083;BME280;13848;49.018;12.078;2022-08-19T08:29:29;97176.84;;;22.52;72.05
26083;BME280;13848;49.018;12.078;2022-08-19T08:31:56;97169.09;;;22.54;71.32
26083;BME280;13848;49.018;12.078;2022-08-19T08:34:22;97174.56;;;22.54;71.73
26083;BME280;13848;49.018;12.078;2022-08-19T08:36:48;97163.59;;;22.54;72.31
26083;BME280;13848;49.018;12.078;2022-08-19T08:39:16;97163.72;;;22.72;71.14
26083;BME280;13848;49.018;12.078;2022-08-19T08:41:50;97152.78;;;22.80;70.97
26083;BME280;13848;49.018;12.078;2022-08-19T08:44:22;97159.84;;;22.95;70.83
26083;BME280;13848;49.018;12.078;2022-08-19T08:46:53;97159.84;;;22.95;70.77
26083;BME280;13848;49.018;12.078;2022-08-19T08:49:29;97158.97;;;23.08;70.11
26083;BME280;13848;49.018;12.078;2022-08-19T08:52:00;97157.06;;;23.18;69.91
26083;BME280;13848;49.018;12.078;2022-08-19T08:54:30;97148.34;;;23.24;69.77
26083;BME280;13848;49.018;12.078;2022-08-19T08:56:57;97125.41;;;23.29;68.88
26083;BME280;13848;49.018;12.078;2022-08-19T08:59:26;97129.63;;;23.35;69.02
26083;BME280;13848;49.018;12.078;2022-08-19T09:01:54;97124.91;;;23.27;68.76
26083;BME280;13848;49.018;12.078;2022-08-19T09:04:20;97126.72;;;23.31;68.89
26083;BME280;13848;49.018;12.078;2022-08-19T09:06:51;97132.09;;;23.45;69.04
26083;BME280;13848;49.018;12.078;2022-08-19T09:09:25;97137.03;;;23.26;68.30
26083;BME280;13848;49.018;12.078;2022-08-19T09:11:59;97146.28;;;23.30;68.40
26083;BME280;13848;49.018;12.078;2022-08-19T09:14:35;97152.78;;;23.34;68.45
26083;BME280;13848;49.018;12.078;2022-08-19T09:17:03;97144.38;;;23.39;68.17
26083;BME280;13848;49.018;12.078;2022-08-19T09:19:30;97161.97;;;23.29;67.80
26083;BME280;13848;49.018;12.078;2022-08-19T09:21:56;97162.16;;;23.33;67.46
26083;BME280;13848;49.018;12.078;2022-08-19T09:24:22;97168.28;;;23.30;68.13
26083;BME280;13848;49.018;12.078;2022-08-19T09:26:48;97168.28;;;23.30;67.39
26083;BME280;13848;49.018;12.078;2022-08-19T09:29:13;97165.03;;;23.28;67.61
26083;BME280;13848;49.018;12.078;2022-08-19T09:31:39;97170.81;;;23.18;68.12
26083;BME280;13848;49.018;12.078;2022-08-19T09:34:07;97175.69;;;23.21;67.95
26083;BME280;13848;49.018;12.078;2022-08-19T09:36:32;97176.97;;;23.15;68.07
26083;BME280;13848;49.018;12.078;2022-08-19T09:38:59;97183.44;;;23.19;68.55
26083;BME280;13848;49.018;12.078;2022-08-19T09:41:25;97179.38;;;23.16;68.44
26083;BME280;13848;49.018;12.078;2022-08-19T09:43:54;97182.25;;;23.11;67.79
26083;BME280;13848;49.018;12.078;2022-08-19T09:46:20;97185.47;;;23.04;68.42
26083;BME280;13848;49.018;12.078;2022-08-19T09:48:46;97187.22;;;23.00;67.86
26083;BME280;13848;49.018;12.078;2022-08-19T09:51:15;97188.69;;;22.84;67.93
26083;BME280;13848;49.018;12.078;2022-08-19T09:53:43;97194.03;;;22.80;67.78
26083;BME280;13848;49.018;12.078;2022-08-19T09:56:11;97189.94;;;22.92;67.82
26083;BME280;13848;49.018;12.078;2022-08-19T09:58:38;97197.25;;;22.96;67.77
26083;BME280;13848;49.018;12.078;2022-08-19T10:01:05;97198.03;;;22.97;68.19
26083;BME280;13848;49.018;12.078;2022-08-19T10:03:33;97205.59;;;22.91;67.81
26083;BME280;13848;49.018;12.078;2022-08-19T10:06:00;97201.09;;;22.95;67.98
26083;BME280;13848;49.018;12.078;2022-08-19T10:08:29;97201.16;;;23.04;67.76
26083;BME280;13848;49.018;12.078;2022-08-19T10:10:56;97206.81;;;23.07;67.38
26083;BME280;13848;49.018;12.078;2022-08-19T10:13:25;97202.66;;;23.10;67.65
26083;BME280;13848;49.018;12.078;2022-08-19T10:15:52;97215.72;;;23.04;67.30
26083;BME280;13848;49.018;12.078;2022-08-19T10:18:20;97204.72;;;23.04;67.44
26083;BME280;13848;49.018;12.078;2022-08-19T10:20:47;97210.41;;;23.08;67.67
26083;BME280;13848;49.018;12.078;2022-08-19T10:23:14;97194.53;;;23.05;66.85
26083;BME280;13848;49.018;12.078;2022-08-19T10:25:41;97198.09;;;23.05;66.68
26083;BME280;13848;49.018;12.078;2022-08-19T10:28:08;97189.91;;;23.14;66.64
26083;BME280;13848;49.018;12.078;2022-08-19T10:30:35;97185.06;;;23.20;66.45
26083;BME280;13848;49.018;12.078;2022-08-19T10:33:01;97180.28;;;23.34;66.78
26083;BME280;13848;49.018;12.078;2022-08-19T10:35:27;97182.25;;;23.42;66.40
26083;BME280;13848;49.018;12.078;2022-08-19T10:37:53;97174.38;;;23.49;66.30
26083;BME280;13848;49.018;12.078;2022-08-19T10:40:19;97183.09;;;23.51;65.83
26083;BME280;13848;49.018;12.078;2022-08-19T10:42:46;97175.84;;;23.55;66.16
26083;BME280;13848;49.018;12.078;2022-08-19T10:45:12;97180.22;;;23.56;65.76
26083;BME280;13848;49.018;12.078;2022-08-19T10:47:38;97185.84;;;23.51;65.39
26083;BME280;13848;49.018;12.078;2022-08-19T10:50:05;97181.81;;;23.49;66.01
26083;BME280;13848;49.018;12.078;2022-08-19T10:52:32;97175.97;;;23.50;65.70
26083;BME280;13848;49.018;12.078;2022-08-19T10:54:58;97178.88;;;23.54;65.77
26083;BME280;13848;49.018;12.078;2022-08-19T10:57:23;97175.19;;;23.58;66.01
26083;BME280;13848;49.018;12.078;2022-08-19T10:59:51;97178.28;;;23.57;65.64
26083;BME280;13848;49.018;12.078;2022-08-19T11:02:17;97177.31;;;23.61;65.60
26083;BME280;13848;49.018;12.078;2022-08-19T11:04:42;97177.84;;;23.63;65.33
26083;BME280;13848;49.018;12.078;2022-08-19T11:07:08;97173.31;;;23.68;64.76
26083;BME280;13848;49.018;12.078;2022-08-19T11:09:38;97168.44;;;23.65;64.52
26083;BME280;13848;49.018;12.078;2022-08-19T11:12:04;97171.69;;;23.67;64.82
26083;BME280;13848;49.018;12.078;2022-08-19T11:14:31;97171.69;;;23.67;64.70
26083;BME280;13848;49.018;12.078;2022-08-19T11:16:59;97170.44;;;23.73;65.41
26083;BME280;13848;49.018;12.078;2022-08-19T11:19:25;97172.66;;;23.71;65.09
26083;BME280;13848;49.018;12.078;2022-08-19T11:21:52;97169.44;;;23.69;64.82
26083;BME280;13848;49.018;12.078;2022-08-19T11:24:20;97174.28;;;23.63;64.56
26083;BME280;13848;49.018;12.078;2022-08-19T11:26:46;97171.97;;;23.56;64.46
26083;BME280;13848;49.018;12.078;2022-08-19T11:29:13;97168.72;;;23.54;64.59
26083;BME280;13848;49.018;12.078;2022-08-19T11:31:41;97167.59;;;23.55;65.27
26083;BME280;13848;49.018;12.078;2022-08-19T11:34:11;97168.22;;;23.52;64.85
26083;BME280;13848;49.018;12.078;2022-08-19T11:36:39;97168.66;;;23.37;65.47
26083;BME280;13848;49.018;12.078;2022-08-19T11:39:06;97174.50;;;23.44;65.69
26083;BME280;13848;49.018;12.078;2022-08-19T11:41:33;97176.41;;;23.35;65.35
26083;BME280;13848;49.018;12.078;2022-08-19T11:43:59;97172.50;;;23.36;65.48
26083;BME280;13848;49.018;12.078;2022-08-19T11:46:26;97171.16;;;23.25;66.68
26083;BME280;13848;49.018;12.078;2022-08-19T11:48:52;97181.06;;;23.26;67.55
26083;BME280;13848;49.018;12.078;2022-08-19T11:51:21;97181.81;;;23.18;68.15
26083;BME280;13848;49.018;12.078;2022-08-19T11:53:47;97170.44;;;23.10;69.33
26083;BME280;13848;49.018;12.078;2022-08-19T11:56:13;97176.56;;;23.07;69.19
26083;BME280;13848;49.018;12.078;2022-08-19T11:58:40;97175.59;;;23.03;69.51
26083;BME280;13848;49.018;12.078;2022-08-19T12:01:07;97162.97;;;23.02;70.23
26083;BME280;13848;49.018;12.078;2022-08-19T12:03:33;97160.84;;;22.99;70.87
26083;BME280;13848;49.018;12.078;2022-08-19T12:06:03;97156.13;;;22.91;70.40
26083;BME280;13848;49.018;12.078;2022-08-19T12:08:31;97158.97;;;22.86;70.79
26083;BME280;13848;49.018;12.078;2022-08-19T12:10:57;97165.09;;;22.83;71.31
26083;BME280;13848;49.018;12.078;2022-08-19T12:13:23;97158.59;;;22.79;72.54
26083;BME280;13848;49.018;12.078;2022-08-19T12:15:49;97160.66;;;22.73;72.43
26083;BME280;13848;49.018;12.078;2022-08-19T12:18:15;97158.06;;;22.68;72.49
26083;BME280;13848;49.018;12.078;2022-08-19T12:20:42;97154.91;;;22.61;73.13
26083;BME280;13848;49.018;12.078;2022-08-19T12:23:09;97159.09;;;22.58;72.63
26083;BME280;13848;49.018;12.078;2022-08-19T12:25:42;97158.63;;;22.56;72.95
26083;BME280;13848;49.018;12.078;2022-08-19T12:28:08;97161.34;;;22.56;72.88
26083;BME280;13848;49.018;12.078;2022-08-19T12:30:37;97161.34;;;22.56;73.83
26083;BME280;13848;49.018;12.078;2022-08-19T12:33:03;97152.16;;;22.61;74.92
26083;BME280;13848;49.018;12.078;2022-08-19T12:35:29;97161.25;;;22.62;74.39
26083;BME280;13848;49.018;12.078;2022-08-19T12:37:55;97155.78;;;22.70;74.22
26083;BME280;13848;49.018;12.078;2022-08-19T12:40:21;97154.34;;;22.73;74.22
26083;BME280;13848;49.018;12.078;2022-08-19T12:42:48;97163.25;;;22.78;73.87
26083;BME280;13848;49.018;12.078;2022-08-19T12:45:14;97161.72;;;22.86;73.23
26083;BME280;13848;49.018;12.078;2022-08-19T12:47:40;97157.03;;;22.87;74.30
26083;BME280;13848;49.018;12.078;2022-08-19T12:50:07;97150.31;;;22.93;72.87